createdAt,value
2018-10-09T19:08:34.574Z,99512.44
2018-10-09T19:11:02.804Z,99529.05
2018-10-09T19:13:31.158Z,99534.20
2018-10-09T19:16:00.167Z,99534.78
2018-10-09T19:18:28.408Z,99549.72
2018-10-09T19:21:05.456Z,99543.30
2018-10-09T19:23:35.065Z,99547.05
2018-10-09T19:26:03.220Z,99551.91
2018-10-09T19:28:31.376Z,99559.70
2018-10-09T19:30:59.564Z,99560.09
2018-10-09T19:33:27.887Z,99565.76
2018-10-09T19:35:56.060Z,99572.43
2018-10-09T19:38:24.372Z,99577.58
2018-10-09T19:40:52.550Z,99576.92
2018-10-09T19:43:20.715Z,99576.88
2018-10-09T19:45:48.916Z,99576.69
2018-10-09T19:48:17.146Z,99577.51
2018-10-09T19:50:45.380Z,99585.59
2018-10-09T19:53:13.490Z,99580.80
2018-10-09T19:55:41.647Z,99580.69
2018-10-09T19:58:09.938Z,99580.61
2018-10-09T20:00:38.134Z,99586.87
2018-10-09T20:03:06.511Z,99583.09
2018-10-09T20:05:35.139Z,99592.02
2018-10-09T20:08:03.307Z,99590.91
2018-10-09T20:10:31.476Z,99586.59
2018-10-09T20:13:00.005Z,99593.81
2018-10-09T20:15:28.269Z,99601.39
2018-10-09T20:17:56.432Z,99604.13
2018-10-09T20:20:24.620Z,99603.23
2018-10-09T20:22:52.887Z,99600.52
2018-10-09T20:25:21.044Z,99601.41
2018-10-09T20:27:49.236Z,99598.98
2018-10-09T20:30:17.420Z,99603.44
2018-10-09T20:32:45.626Z,99604.98
2018-10-09T20:35:13.835Z,99613.64
2018-10-09T20:37:41.999Z,99613.57
2018-10-09T20:40:10.156Z,99613.39
2018-10-09T20:42:38.375Z,99612.14
2018-10-09T20:45:06.878Z,99613.03
2018-10-09T20:47:40.384Z,99607.14
2018-10-09T20:50:08.535Z,99611.70
2018-10-09T20:52:36.699Z,99613.97
2018-10-09T20:55:05.238Z,99607.14
2018-10-09T20:57:33.397Z,99609.52
2018-10-09T21:00:01.630Z,99616.62
2018-10-09T21:02:29.804Z,99613.50
2018-10-09T21:04:58.025Z,99610.73
2018-10-09T21:07:26.189Z,99603.14
2018-10-09T21:09:54.428Z,99603.70
2018-10-09T21:12:23.209Z,99608.55
2018-10-09T21:14:51.351Z,99604.73
2018-10-09T21:17:19.551Z,99606.76
2018-10-09T21:19:47.750Z,99608.44
2018-10-09T21:22:15.886Z,99606.05
2018-10-09T21:24:44.034Z,99609.63
2018-10-09T21:27:12.562Z,99604.42
2018-10-09T21:29:40.761Z,99611.03
2018-10-09T21:32:08.901Z,99609.81
2018-10-09T21:34:37.084Z,99608.75
2018-10-09T21:37:05.227Z,99606.20
2018-10-09T21:39:34.016Z,99598.71
2018-10-09T21:42:02.193Z,99603.78
2018-10-09T21:44:30.346Z,99601.08
2018-10-09T21:46:58.673Z,99601.02
2018-10-09T21:49:26.816Z,99600.34
2018-10-09T21:51:55.008Z,99597.05
2018-10-09T21:54:23.172Z,99599.25
2018-10-09T21:56:51.322Z,99592.33
2018-10-09T21:59:19.461Z,99589.60
2018-10-09T22:01:47.608Z,99586.78
2018-10-09T22:04:15.754Z,99588.98
2018-10-09T22:06:43.899Z,99586.34
2018-10-09T22:09:12.061Z,99591.56
2018-10-09T22:11:40.205Z,99583.54
2018-10-09T22:14:08.346Z,99585.63
2018-10-09T22:16:36.533Z,99582.93
2018-10-09T22:19:04.681Z,99585.12
2018-10-09T22:21:32.820Z,99588.83
2018-10-09T22:24:00.984Z,99580.41
2018-10-09T22:26:29.125Z,99582.00
2018-10-09T22:28:57.277Z,99582.95
2018-10-09T22:31:25.481Z,99577.73
2018-10-09T22:33:53.634Z,99578.10
2018-10-09T22:36:21.785Z,99571.48
2018-10-09T22:38:49.962Z,99581.23
2018-10-09T22:41:18.160Z,99580.87
2018-10-09T22:43:46.737Z,99581.44
2018-10-09T22:46:14.876Z,99583.23
2018-10-09T22:48:43.020Z,99575.45
2018-10-09T22:51:11.180Z,99569.94
2018-10-09T22:53:39.322Z,99567.88
2018-10-09T22:56:07.468Z,99559.00
2018-10-09T22:58:35.627Z,99563.61
2018-10-09T23:01:03.770Z,99566.52
2018-10-09T23:03:32.029Z,99560.94
2018-10-09T23:06:00.598Z,99568.94
2018-10-09T23:08:28.776Z,99569.02
2018-10-09T23:10:56.924Z,99562.77
2018-10-09T23:13:25.068Z,99564.66
2018-10-09T23:15:53.294Z,99571.91
2018-10-09T23:18:23.019Z,99568.91
2018-10-09T23:20:51.154Z,99572.86
2018-10-09T23:23:19.388Z,99571.62
2018-10-09T23:25:47.577Z,99572.63
2018-10-09T23:28:15.732Z,99575.18
2018-10-09T23:30:43.986Z,99578.50
2018-10-09T23:33:12.134Z,99579.74
2018-10-09T23:35:40.276Z,99574.89
2018-10-09T23:38:08.600Z,99577.27
2018-10-09T23:40:36.811Z,99575.21
2018-10-09T23:43:05.107Z,99573.17
2018-10-09T23:45:33.180Z,99565.33
2018-10-09T23:48:02.347Z,99567.44
2018-10-09T23:50:30.510Z,99564.00
2018-10-09T23:52:58.657Z,99566.19
2018-10-09T23:55:26.810Z,99557.58
2018-10-09T23:57:54.963Z,99564.28
